Latest Weather Observations for Sydney Airport

IDN60801

Issued at 12:03 pm EST Wednesday 8 July 2015 (issued every 30 minutes, with the page automatically refreshed every 10 minutes)

About weather observations | Map of weather stations | Latest weather observations for NSW | Other Formats
Station Details ID: 066037 Name: SYDNEY AIRPORT AMO Lat: -33.95 Lon: 151.17 Height: 6.0 m
Data from the previous 72 hours. | See also: Recent months at Sydney Airport
Date/Time
EST
Temp
°C
App
Temp
°C
Dew
Point
Rel
Hum
%
Delta-T
°C
Wind Press
QNH
hPa
Press
MSL
hPa
Rain
since 9 am
mm
Dir
 
Spd
km/h
Gust
km/h
Spd
kts
Gust
kts
08/11:30am 13.5 11.4 9.6 77 2.0 SW 11 22 6 12 1028.6 1028.6 0.2
08/11:00am 12.8 10.3 9.6 81 1.6 WSW 13 17 7 9 1029.0 1029.0 0.2
08/10:30am 11.4 9.0 8.5 82 1.4 WSW 11 15 6 8 1029.1 1029.1 0.2
08/10:00am 10.6 8.4 7.9 83 1.3 W 9 11 5 6 1029.1 1029.1 0.0
08/09:30am 10.2 6.1 6.1 76 1.9 WNW 17 20 9 11 1029.0 1029.0 0.0
08/09:00am 9.3 5.5 6.0 80 1.5 NW 15 17 8 9 1028.7 1028.7 3.4
08/08:30am 9.3 5.7 6.7 84 1.2 NW 15 17 8 9 1028.7 1028.7 3.4
08/08:00am 8.5 4.5 6.5 87 0.9 NW 17 20 9 11 1028.4 1028.4 3.4
08/07:30am 10.1 7.5 7.8 86 1.1 NNW 11 15 6 8 1028.1 1028.1 3.4
08/07:00am 9.0 6.0 7.5 90 0.7 WNW 13 15 7 8 1027.8 1027.8 3.4
08/06:30am 9.4 5.9 7.3 87 1.0 W 15 17 8 9 1027.4 1027.4 3.4
08/05:30am 8.9 4.6 7.0 88 0.9 W 19 22 10 12 1026.8 1026.8 3.4
08/05:00am 8.7 5.2 7.2 90 0.7 WSW 15 20 8 11 1026.6 1026.6 3.4
08/04:30am 9.2 5.4 7.7 90 0.7 WSW 17 20 9 11 1026.3 1026.3 3.2
08/04:00am 9.7 5.6 8.5 92 0.6 WSW 20 26 11 14 1026.1 1026.1 2.8
08/03:30am 8.9 5.9 7.8 93 0.5 WNW 13 17 7 9 1026.1 1026.1 2.8
08/03:00am 9.1 5.4 8.1 93 0.5 WNW 17 20 9 11 1026.0 1026.0 2.8
08/02:42am 10.6 6.4 9.8 95 0.4 S 22 30 12 16 1026.2 1026.2 2.8
08/02:30am 9.2 6.3 8.2 93 0.5 WSW 13 19 7 10 1026.0 1026.0 2.0
08/02:00am 9.4 6.1 7.9 90 0.7 WSW 15 19 8 10 1025.9 1025.9 2.0
08/01:30am 10.6 7.2 9.0 90 0.8 SW 17 22 9 12 1025.9 1025.9 2.0
08/01:00am 11.1 8.1 9.3 89 0.9 WSW 15 20 8 11 1025.7 1025.7 1.6
08/12:30am 12.0 7.7 9.4 84 1.3 SSE 22 32 12 17 1025.6 1025.6 1.6
 
Date/Time
EST
Temp
°C
App
Temp
°C
Dew
Point
Rel
Hum
%
Delta-T
°C
Wind Press
QNH
hPa
Press
MSL
hPa
Rain
since 9 am
mm
Dir
 
Spd
km/h
Gust
km/h
Spd
kts
Gust
kts
07/11:30pm 11.6 7.3 9.2 85 1.2 SW 22 28 12 15 1025.4 1025.4 1.2
07/11:00pm 11.6 7.3 9.4 86 1.1 SSW 22 28 12 15 1025.4 1025.4 1.2
07/10:30pm 11.2 8.2 9.2 87 1.0 W 15 17 8 9 1025.3 1025.3 1.2
07/10:00pm 11.0 8.3 9.0 87 1.0 WSW 13 32 7 17 1025.2 1025.2 1.2
07/09:30pm 11.1 8.4 9.1 87 1.0 S 13 17 7 9 1025.0 1025.0 1.2
07/09:00pm 11.0 8.9 9.6 91 0.7 WSW 11 15 6 8 1024.7 1024.7 1.0
07/08:30pm 11.1 5.6 9.1 87 1.0 SSW 28 37 15 20 1024.8 1024.8 1.0
07/08:00pm 11.4 9.2 9.4 87 1.0 SSW 11 24 6 13 1024.6 1024.6 0.6
07/07:30pm 11.4 8.3 8.8 84 1.3 WSW 15 19 8 10 1024.0 1024.0 0.6
07/07:00pm 11.8 9.2 9.4 85 1.2 SSW 13 20 7 11 1024.1 1024.1 0.6
07/06:30pm 11.2 8.2 9.2 87 1.0 WSW 15 28 8 15 1023.7 1023.7 0.6
07/05:30pm 11.5 6.1 9.5 87 1.0 SSW 28 44 15 24 1023.1 1023.1 0.2
07/05:00pm 11.6 5.5 9.8 89 0.9 SSW 32 41 17 22 1022.7 1022.7 0.2
07/04:30pm 11.6 7.2 9.0 84 1.3 SW 22 28 12 15 1022.4 1022.4 0.2
07/04:09pm 12.1 6.6 9.1 82 1.5 S 28 44 15 24 1022.3 1022.3 0.2
07/04:00pm 12.8 8.5 7.9 72 2.4 SSW 20 26 11 14 1022.1 1022.1 0.2
07/03:30pm 12.6 8.5 8.8 77 1.9 SSW 20 26 11 14 1021.8 1021.8 0.2
07/03:00pm 12.3 7.6 9.3 82 1.5 SSW 24 32 13 17 1021.5 1021.5 0.0
07/02:30pm 11.8 6.0 9.6 86 1.1 SSE 30 39 16 21 1021.4 1021.4 0.0
07/02:00pm 13.3 8.2 9.1 76 2.1 SSW 26 33 14 18 1020.8 1020.8 0.0
07/01:30pm 13.2 8.0 9.0 75 2.1 SSW 26 33 14 18 1020.7 1020.7 0.0
07/01:00pm 13.9 7.4 8.0 67 2.9 SSW 32 37 17 20 1020.5 1020.5 0.0
07/12:30pm 14.0 7.9 8.2 68 2.9 SSW 30 35 16 19 1020.4 1020.4 0.0
07/12:00pm 13.5 7.1 8.5 72 2.5 SSW 32 39 17 21 1020.5 1020.5 0.0
07/11:30am 13.4 7.3 8.1 70 2.6 SSW 30 41 16 22 1020.5 1020.5 0.0
07/11:00am 13.5 7.4 8.3 71 2.6 SSW 30 41 16 22 1020.7 1020.7 0.0
07/10:30am 13.6 6.3 7.0 64 3.2 SSW 35 46 19 25 1020.6 1020.6 0.0
07/10:00am 13.6 7.8 4.4 53 4.2 SW 24 39 13 21 1020.4 1020.4 0.0
07/09:30am 12.8 7.6 3.3 52 4.2 WSW 20 26 11 14 1020.1 1020.1 0.0
07/09:00am 12.5 6.2 3.5 54 4.0 SW 26 30 14 16 1019.7 1019.7 0.0
07/08:30am 11.3 5.6 2.7 55 3.7 WSW 22 30 12 16 1019.4 1019.4 0.0
07/08:00am 10.4 4.7 2.7 59 3.3 WSW 22 28 12 15 1019.2 1019.2 0.0
07/07:30am 9.4 5.0 2.5 62 2.9 W 15 22 8 12 1019.0 1019.0 0.0
07/07:00am 8.6 4.2 2.7 66 2.5 NNW 15 19 8 10 1018.7 1018.7 0.0
07/06:30am 8.2 3.7 2.4 67 2.4 NNW 15 19 8 10 1018.2 1018.2 0.0
07/06:00am 8.2 4.0 1.9 64 2.6 N 13 17 7 9 1017.8 1017.8 0.0
07/05:30am 7.7 3.5 1.8 66 2.4 N 13 15 7 8 1017.3 1017.3 0.0
07/05:00am 7.7 3.5 1.8 66 2.4 NW 13 19 7 10 1017.1 1017.1 0.0
07/04:30am 7.1 1.8 1.9 69 2.1 NW 19 26 10 14 1016.7 1016.7 0.0
07/04:00am 7.3 2.3 1.6 67 2.3 NW 17 22 9 12 1016.7 1016.7 0.0
07/03:30am 7.8 2.5 1.7 65 2.5 WNW 19 24 10 13 1016.6 1016.6 0.0
07/03:00am 7.9 2.9 1.5 64 2.6 NW 17 24 9 13 1016.4 1016.4 0.0
07/02:30am 8.2 3.2 1.6 63 2.7 W 17 20 9 11 1016.3 1016.3 0.0
07/02:00am 8.2 2.9 1.6 63 2.7 WNW 19 24 10 13 1016.3 1016.3 0.0
07/01:30am 8.4 2.9 1.9 63 2.7 W 20 28 11 15 1016.2 1016.2 0.0
07/01:00am 8.3 3.4 1.7 63 2.7 W 17 24 9 13 1016.3 1016.3 0.0
07/12:30am 8.4 2.5 1.9 63 2.7 W 22 30 12 16 1016.3 1016.3 0.0
07/12:00am 8.7 2.0 1.4 60 3.0 W 26 32 14 17 1016.4 1016.4 0.0
 
Date/Time
EST
Temp
°C
App
Temp
°C
Dew
Point
Rel
Hum
%
Delta-T
°C
Wind Press
QNH
hPa
Press
MSL
hPa
Rain
since 9 am
mm
Dir
 
Spd
km/h
Gust
km/h
Spd
kts
Gust
kts
06/11:30pm 8.9 1.8 1.3 59 3.1 W 28 35 15 19 1016.5 1016.5 0.0
06/11:00pm 9.5 3.5 1.2 56 3.4 W 22 26 12 14 1016.7 1016.7 0.0
06/10:30pm 9.1 2.8 1.3 58 3.2 W 24 30 13 16 1016.5 1016.5 0.0
06/10:00pm 9.2 2.4 0.8 55 3.4 W 26 30 14 16 1016.2 1016.2 0.0
06/09:30pm 9.6 3.6 1.1 55 3.5 W 22 44 12 24 1016.2 1016.2 0.0
06/09:00pm 10.0 4.3 0.7 52 3.8 W 20 28 11 15 1016.2 1016.2 0.0
06/08:30pm 10.3 4.6 0.5 50 4.0 W 20 26 11 14 1016.0 1016.0 0.0
06/08:00pm 10.9 4.4 0.0 47 4.4 W 24 33 13 18 1016.0 1016.0 0.0
06/07:30pm 11.1 5.0 0.7 48 4.3 W 22 32 12 17 1015.9 1015.9 0.0
06/07:00pm 11.5 5.5 0.9 48 4.4 W 22 30 12 16 1015.8 1015.8 0.0
06/06:30pm 11.9 4.7 0.9 47 4.6 W 28 32 15 17 1015.6 1015.6 0.0
06/06:00pm 12.4 5.2 0.7 44 4.9 WSW 28 33 15 18 1015.2 1015.2 0.0
06/05:30pm 12.9 5.3 0.4 42 5.2 WSW 30 41 16 22 1014.8 1014.8 0.0
06/05:00pm 13.6 6.8 0.6 41 5.5 WSW 26 35 14 19 1014.3 1014.3 0.0
06/04:30pm 14.6 7.0 0.8 39 5.9 WSW 30 41 16 22 1014.0 1014.0 0.0
06/04:00pm 15.3 8.0 -0.1 35 6.5 WSW 28 35 15 19 1013.7 1013.7 0.0
06/03:30pm 15.9 8.1 -0.8 32 7.0 WSW 30 35 16 19 1013.5 1013.5 0.0
06/03:00pm 16.0 8.2 -0.7 32 7.0 WSW 30 37 16 20 1013.3 1013.3 0.0
06/02:30pm 16.7 9.8 -0.1 32 7.2 W 26 33 14 18 1013.2 1013.2 0.0
06/02:00pm 16.5 8.7 -0.9 30 7.3 W 30 35 16 19 1013.1 1013.1 0.0
06/01:30pm 15.8 8.3 -1.4 31 7.1 W 28 39 15 21 1013.1 1013.1 0.0
06/01:00pm 16.3 10.5 -1.2 30 7.3 WNW 19 26 10 14 1013.4 1013.4 0.0
06/12:30pm 15.9 8.9 -0.8 32 7.0 WNW 26 32 14 17 1013.8 1013.8 0.0
06/12:00pm 14.7 8.5 -0.4 35 6.3 WNW 22 32 12 17 1014.4 1014.4 0.0
06/11:30am 14.5 8.7 -0.4 36 6.2 W 20 32 11 17 1015.0 1015.0 0.0
06/11:00am 13.8 8.0 -0.2 38 5.8 W 20 30 11 16 1015.4 1015.4 0.0
06/10:30am 12.8 7.7 0.6 43 5.1 W 17 26 9 14 1015.8 1015.8 0.0
06/10:00am 12.1 7.1 1.2 47 4.6 WNW 17 22 9 12 1016.1 1016.1 0.0
06/09:30am 11.1 6.3 0.3 47 4.4 WNW 15 19 8 10 1016.2 1016.2 0.0
06/09:00am 9.5 4.2 -0.4 50 3.9 NW 17 20 9 11 1016.2 1016.2 0.0
06/08:30am 8.5 3.2 -0.8 52 3.6 NW 17 24 9 13 1016.3 1016.3 0.0
06/08:00am 7.6 2.2 -1.1 54 3.3 NW 17 24 9 13 1016.4 1016.4 0.0
06/07:30am 6.8 1.5 -0.5 59 2.8 NW 17 19 9 10 1016.3 1016.3 0.0
06/07:00am 6.5 1.5 -0.9 59 2.8 NW 15 19 8 10 1016.1 1016.1 0.0
06/06:30am 6.3 1.5 0.1 64 2.4 WNW 15 19 8 10 1016.0 1016.0 0.0
06/06:00am 6.9 3.2 0.2 62 2.6 NW 9 13 5 7 1015.9 1015.9 0.0
06/05:30am 6.4 2.1 0.8 67 2.2 NW 13 15 7 8 1015.8 1015.8 0.0
06/05:00am 6.6 2.3 1.1 68 2.2 NW 13 17 7 9 1015.9 1015.9 0.0
06/04:30am 7.1 3.3 2.0 70 2.1 NNW 11 13 6 7 1016.0 1016.0 0.0
06/04:00am 7.0 3.2 3.7 79 1.4 NNW 13 17 7 9 1016.1 1016.1 0.0
06/03:30am 6.8 2.6 4.0 82 1.2 NW 15 17 8 9 1016.4 1016.4 0.0
06/03:00am 7.2 3.4 3.9 79 1.4 NW 13 17 7 9 1016.6 1016.6 0.0
06/02:30am 7.7 3.9 4.0 77 1.6 NW 13 17 7 9 1016.9 1016.9 0.0
06/02:00am 7.6 3.8 3.9 77 1.6 NW 13 17 7 9 1017.1 1017.1 0.0
06/01:30am 7.7 3.9 4.0 77 1.6 NW 13 17 7 9 1017.2 1017.2 0.0
06/01:00am 7.9 4.2 4.2 77 1.6 NW 13 17 7 9 1017.5 1017.5 0.0
06/12:30am 9.0 4.6 4.5 73 2.0 NNW 17 19 9 10 1017.6 1017.6 0.0
06/12:00am 8.8 4.4 4.5 74 1.9 NNW 17 19 9 10 1018.0 1018.0 0.0
 
Date/Time
EST
Temp
°C
App
Temp
°C
Dew
Point
Rel
Hum
%
Delta-T
°C
Wind Press
QNH
hPa
Press
MSL
hPa
Rain
since 9 am
mm
Dir
 
Spd
km/h
Gust
km/h
Spd
kts
Gust
kts
05/11:30pm 9.4 4.8 3.9 68 2.4 NNW 17 20 9 11 1017.9 1017.9 0.0
05/11:00pm 9.5 4.5 3.5 66 2.6 NW 19 22 10 12 1018.0 1018.0 0.0
05/10:30pm 10.4 6.7 4.3 66 2.7 NNW 13 15 7 8 1017.9 1017.9 0.0
05/10:00pm 11.0 7.4 3.2 58 3.4 NW 11 17 6 9 1017.9 1017.9 0.0
05/09:30pm 11.2 8.1 3.5 59 3.4 NW 9 11 5 6 1018.0 1018.0 0.0
05/09:00pm 11.4 8.4 4.3 61 3.2 NNW 9 9 5 5 1018.0 1018.0 0.0
05/08:30pm 12.0 9.3 3.9 57 3.6 N 7 11 4 6 1018.1 1018.1 0.0
05/08:00pm 12.5 9.8 3.8 55 3.9 NW 7 9 4 5 1018.1 1018.1 0.0
05/07:30pm 13.2 9.7 3.6 52 4.3 WNW 11 15 6 8 1018.3 1018.3 0.0
05/07:00pm 13.8 10.8 4.1 52 4.4 NW 9 11 5 6 1018.3 1018.3 0.0
05/06:30pm 14.1 11.2 4.8 53 4.3 NW 9 11 5 6 1018.2 1018.2 0.0
05/06:00pm 14.6 11.6 4.1 49 4.8 N 9 11 5 6 1018.0 1018.0 0.0
05/05:30pm 15.8 12.6 3.3 43 5.7 NNE 9 11 5 6 1017.8 1017.8 0.0
05/05:00pm 15.7 12.0 2.2 40 6.0 NNE 11 13 6 7 1017.8 1017.8 0.0
05/04:30pm 15.4 12.6 3.0 43 5.6 ESE 7 9 4 5 1017.7 1017.7 0.0
05/04:00pm 16.6 12.6 -2.3 27 7.7 SE 9 11 5 6 1017.8 1017.8 0.0
05/03:30pm 17.3 13.7 -2.2 26 8.0 NW 7 9 4 5 1018.0 1018.0 0.0
05/03:00pm 17.7 13.9 -1.0 28 7.9 NW 9 11 5 6 1017.9 1017.9 0.0
05/02:30pm 18.0 14.1 -1.6 26 8.2 WNW 9 13 5 7 1017.9 1017.9 0.0
05/02:00pm 18.2 13.9 -1.6 26 8.3 WNW 11 13 6 7 1018.1 1018.1 0.0
05/01:30pm 17.9 13.7 -1.0 27 8.0 NW 11 17 6 9 1018.2 1018.2 0.0
05/01:00pm 17.0 12.5 -0.4 30 7.4 NNW 13 17 7 9 1018.7 1018.7 0.0
05/12:30pm 16.7 12.1 -1.0 30 7.4 NW 13 15 7 8 1019.2 1019.2 0.0

Other Formats:

Comma delimited format used in spreadsheet applications
http://www.bom.gov.au/fwo/IDN60801/IDN60801.94767.axf

JavaScript Object Notation format (JSON) in row-major order
http://www.bom.gov.au/fwo/IDN60801/IDN60801.94767.json